Time;durP1;ratioP1;P1;durP2;ratioP2;P2;SDS_P1;SDS_P2;PMS_P1;PMS_P2;Temp;Humidity;BMP_temperature;BMP_pressure;BME280_temperature;BME280_humidity;BME280_pressure;Samples;Min_cycle;Max_cycle;Signal;HPM_P1;HPM_P2
2022/04/01 00:01:22;;;;;;;10.73;5.05;;;0.80;99.90;;;;;;5043227;28;20048;-74
2022/04/01 00:03:48;;;;;;;9.73;4.97;;;0.80;99.90;;;;;;5025616;28;20052;-75
2022/04/01 00:06:14;;;;;;;8.75;5.18;;;0.80;99.90;;;;;;5039841;28;20832;-75
2022/04/01 00:08:40;;;;;;;8.68;5.10;;;0.80;99.90;;;;;;5039698;28;20044;-75
2022/04/01 00:11:06;;;;;;;10.93;5.88;;;0.90;99.90;;;;;;5042102;28;20190;-75
2022/04/01 00:13:32;;;;;;;8.98;4.72;;;0.90;99.90;;;;;;5038239;28;20454;-75
2022/04/01 00:15:59;;;;;;;10.63;5.30;;;0.90;99.90;;;;;;5039601;28;20210;-75
2022/04/01 00:18:25;;;;;;;9.35;5.22;;;0.90;99.90;;;;;;5041096;28;22296;-75
2022/04/01 00:20:51;;;;;;;9.68;4.80;;;0.80;99.90;;;;;;5037747;28;20651;-74
2022/04/01 00:23:17;;;;;;;12.07;4.80;;;0.90;99.90;;;;;;5039461;28;20154;-75
2022/04/01 00:25:43;;;;;;;9.32;5.22;;;0.90;99.90;;;;;;5042532;28;20559;-75
2022/04/01 00:28:10;;;;;;;8.38;5.25;;;0.80;99.90;;;;;;5043746;28;20134;-75
2022/04/01 00:30:38;;;;;;;8.25;5.10;;;0.80;99.90;;;;;;5024640;28;20327;-75
2022/04/01 00:33:08;;;;;;;7.85;5.15;;;0.80;99.90;;;;;;5041127;28;20975;-75
2022/04/01 00:35:35;;;;;;;9.75;4.93;;;0.80;99.90;;;;;;5026266;28;20051;-75
2022/04/01 00:38:01;;;;;;;9.98;5.30;;;0.70;99.90;;;;;;5046166;28;20055;-75
2022/04/01 00:40:27;;;;;;;10.20;5.03;;;0.80;99.90;;;;;;5048279;28;20035;-74
2022/04/01 00:42:53;;;;;;;8.48;5.40;;;0.80;99.90;;;;;;5050388;28;21263;-75
2022/04/01 00:45:19;;;;;;;10.18;5.15;;;0.80;99.90;;;;;;5047984;28;20502;-75
2022/04/01 00:47:45;;;;;;;7.82;4.88;;;0.80;99.90;;;;;;5010488;28;20067;-75
2022/04/01 00:50:11;;;;;;;9.55;5.25;;;0.70;99.90;;;;;;5044438;28;20036;-75
2022/04/01 00:52:37;;;;;;;8.27;4.82;;;0.70;99.90;;;;;;5044121;28;20048;-75
2022/04/01 00:55:08;;;;;;;7.32;4.88;;;0.70;99.90;;;;;;5023849;28;20044;-74
2022/04/01 00:57:36;;;;;;;9.02;4.95;;;0.60;99.90;;;;;;5024005;28;20051;-75
2022/04/01 01:00:06;;;;;;;9.73;5.03;;;0.80;99.90;;;;;;5019539;28;20062;-75
2022/04/01 01:02:34;;;;;;;12.25;4.97;;;0.70;99.90;;;;;;5040505;28;20118;-74
2022/04/01 01:05:00;;;;;;;10.82;4.50;;;0.80;99.90;;;;;;5024922;28;20044;-75
2022/04/01 01:07:26;;;;;;;9.70;4.75;;;0.70;99.90;;;;;;5044265;28;20047;-74
2022/04/01 01:09:53;;;;;;;9.25;5.07;;;0.80;99.90;;;;;;5041819;28;20086;-75
2022/04/01 01:12:19;;;;;;;8.60;5.10;;;0.70;99.90;;;;;;5039259;28;20424;-75
2022/04/01 01:14:46;;;;;;;7.22;4.28;;;0.70;99.90;;;;;;5044542;28;20060;-75
2022/04/01 01:17:14;;;;;;;9.65;5.38;;;0.60;99.90;;;;;;5041514;28;20044;-74
2022/04/01 01:19:41;;;;;;;10.07;4.97;;;0.70;99.90;;;;;;5041512;28;20048;-75
2022/04/01 01:22:08;;;;;;;7.97;4.53;;;0.70;99.90;;;;;;5027382;28;20040;-75
2022/04/01 01:24:36;;;;;;;8.07;4.22;;;0.70;99.90;;;;;;5045559;28;20151;-75
2022/04/01 01:27:05;;;;;;;8.93;5.00;;;0.60;99.90;;;;;;5026219;28;20052;-75
2022/04/01 01:29:32;;;;;;;9.00;4.47;;;0.60;99.90;;;;;;5044454;28;20097;-75
2022/04/01 01:32:03;;;;;;;8.27;4.47;;;0.70;99.90;;;;;;5045505;28;20682;-75
2022/04/01 01:34:32;;;;;;;9.52;4.30;;;0.60;99.90;;;;;;5046871;28;20044;-74
2022/04/01 01:37:00;;;;;;;8.02;3.97;;;0.70;99.90;;;;;;5044322;28;20494;-74
2022/04/01 01:39:26;;;;;;;7.05;4.20;;;0.60;99.90;;;;;;5044658;28;20074;-74
2022/04/01 01:41:53;;;;;;;8.68;4.00;;;0.60;99.90;;;;;;5037972;28;20040;-74
2022/04/01 01:44:21;;;;;;;8.48;4.13;;;0.60;99.90;;;;;;5039426;28;20040;-75
2022/04/01 01:46:47;;;;;;;8.63;3.45;;;0.60;99.90;;;;;;5027282;28;20108;-74
2022/04/01 01:49:13;;;;;;;9.57;4.03;;;0.70;99.90;;;;;;5040286;28;20032;-75
2022/04/01 01:57:25;;;;;;;8.32;3.65;;;0.60;99.90;;;;;;4984494;28;21110;-75
2022/04/01 01:59:52;;;;;;;7.43;3.42;;;0.60;99.90;;;;;;5025710;28;20051;-74
2022/04/01 02:02:18;;;;;;;7.93;3.30;;;0.50;99.90;;;;;;5039363;28;20436;-75
2022/04/01 02:04:46;;;;;;;8.35;3.88;;;0.60;99.90;;;;;;5042868;28;20040;-74
2022/04/01 02:07:12;;;;;;;8.32;3.63;;;0.60;99.90;;;;;;5041873;28;20075;-75
2022/04/01 02:09:40;;;;;;;7.55;3.70;;;0.60;99.90;;;;;;5026418;28;20101;-75
2022/04/01 02:12:06;;;;;;;8.48;3.65;;;0.50;99.90;;;;;;5039966;28;20052;-75
2022/04/01 02:14:34;;;;;;;6.25;3.25;;;0.60;99.90;;;;;;5016531;28;20059;-75
2022/04/01 02:17:00;;;;;;;6.47;3.42;;;0.70;99.90;;;;;;5020478;28;20052;-75
2022/04/01 02:19:26;;;;;;;8.25;3.15;;;0.60;99.90;;;;;;5020457;28;20033;-74
2022/04/01 02:21:53;;;;;;;8.00;3.65;;;0.60;99.90;;;;;;5022197;28;20078;-74
2022/04/01 02:24:24;;;;;;;9.43;3.95;;;0.70;99.90;;;;;;5019573;28;20512;-74
2022/04/01 02:26:50;;;;;;;8.85;3.65;;;0.70;99.90;;;;;;5019978;28;20496;-74
2022/04/01 02:29:19;;;;;;;8.50;3.60;;;0.70;99.90;;;;;;5020187;28;20052;-74
2022/04/01 02:31:46;;;;;;;8.38;3.60;;;0.70;99.90;;;;;;5019855;28;20063;-74
2022/04/01 02:34:12;;;;;;;7.82;3.40;;;0.80;99.90;;;;;;5019675;28;20044;-75
2022/04/01 02:36:38;;;;;;;7.13;3.45;;;0.70;99.90;;;;;;5019304;28;20083;-74
2022/04/01 02:39:05;;;;;;;7.50;3.42;;;0.70;99.90;;;;;;5024854;28;20048;-75
2022/04/01 02:41:32;;;;;;;7.32;3.33;;;0.70;99.90;;;;;;5024630;28;20773;-75
2022/04/01 02:44:08;;;;;;;7.28;3.50;;;0.70;99.90;;;;;;5026981;28;20048;-74
2022/04/01 02:46:43;;;;;;;8.05;3.38;;;0.70;99.90;;;;;;5022883;28;20679;-74
2022/04/01 02:49:10;;;;;;;6.57;3.40;;;0.70;99.90;;;;;;5022991;28;20049;-74
2022/04/01 02:51:39;;;;;;;6.25;3.30;;;0.60;99.90;;;;;;5024819;28;20087;-74
2022/04/01 02:54:06;;;;;;;8.70;3.38;;;0.70;99.90;;;;;;5022526;28;20041;-74
2022/04/01 02:56:34;;;;;;;8.43;3.40;;;0.70;99.90;;;;;;5024061;28;20123;-74
2022/04/01 02:59:01;;;;;;;7.13;3.33;;;0.70;99.90;;;;;;5018726;28;20051;-74
2022/04/01 03:01:28;;;;;;;6.70;3.40;;;0.70;99.90;;;;;;5020374;28;20056;-74
2022/04/01 03:03:55;;;;;;;6.25;3.17;;;0.70;99.90;;;;;;5021592;28;20491;-74
2022/04/01 03:06:21;;;;;;;11.23;3.65;;;0.70;99.90;;;;;;5018739;28;20048;-74
2022/04/01 03:08:48;;;;;;;6.32;3.33;;;0.60;99.90;;;;;;5023761;28;20182;-74
2022/04/01 03:11:14;;;;;;;6.00;3.20;;;0.60;99.90;;;;;;5021778;28;20041;-74
2022/04/01 03:13:41;;;;;;;7.75;3.42;;;0.60;99.90;;;;;;5011210;28;20056;-74
2022/04/01 03:16:07;;;;;;;7.35;3.00;;;0.70;99.90;;;;;;5020487;28;20044;-74
2022/04/01 03:18:34;;;;;;;6.88;3.17;;;0.70;99.90;;;;;;5021609;28;20091;-74
2022/04/01 03:20:59;;;;;;;7.93;3.25;;;0.60;99.90;;;;;;5017308;28;20044;-74
2022/04/01 03:23:25;;;;;;;6.28;2.75;;;0.70;99.90;;;;;;5018227;28;20648;-74
2022/04/01 03:25:53;;;;;;;5.95;2.83;;;0.70;99.90;;;;;;5023887;28;20553;-74
2022/04/01 03:28:18;;;;;;;6.85;2.95;;;0.80;99.90;;;;;;5021383;28;20044;-74
2022/04/01 03:30:44;;;;;;;6.20;3.00;;;0.70;99.90;;;;;;5024440;28;20052;-74
2022/04/01 03:33:10;;;;;;;5.90;2.78;;;0.80;99.90;;;;;;5022757;28;20114;-74
2022/04/01 03:35:37;;;;;;;7.03;2.70;;;0.70;99.90;;;;;;5025379;28;20126;-74
2022/04/01 03:38:05;;;;;;;5.68;2.95;;;0.80;99.90;;;;;;5029161;28;20131;-74
2022/04/01 03:40:32;;;;;;;6.57;2.60;;;0.80;99.90;;;;;;5026486;28;20110;-74
2022/04/01 03:42:59;;;;;;;7.68;2.70;;;0.80;99.90;;;;;;5024984;28;20414;-74
2022/04/01 03:45:25;;;;;;;6.93;2.80;;;0.90;99.90;;;;;;5005950;28;20060;-74
2022/04/01 03:48:04;;;;;;;5.95;2.75;;;0.80;99.90;;;;;;5023895;28;20041;-74
2022/04/01 03:50:34;;;;;;;9.40;3.20;;;0.80;99.90;;;;;;5022439;28;20040;-75
2022/04/01 03:53:07;;;;;;;9.90;3.10;;;0.80;99.90;;;;;;5019139;28;20159;-74
2022/04/01 03:55:38;;;;;;;5.70;2.78;;;0.90;99.90;;;;;;5018267;28;20032;-74
2022/04/01 03:58:09;;;;;;;7.47;2.90;;;0.90;99.90;;;;;;5018585;28;20041;-73
2022/04/01 04:00:36;;;;;;;6.18;2.95;;;0.90;99.90;;;;;;5020891;28;20155;-74
2022/04/01 04:03:07;;;;;;;5.60;2.72;;;0.90;99.90;;;;;;5022431;28;20143;-74
2022/04/01 04:05:37;;;;;;;7.18;3.00;;;1.00;99.90;;;;;;5004474;28;20052;-74
2022/04/01 04:08:06;;;;;;;7.28;3.08;;;0.90;99.90;;;;;;5023923;28;20036;-74
2022/04/01 04:10:34;;;;;;;5.97;2.80;;;0.90;99.90;;;;;;5018332;28;20055;-74
2022/04/01 04:13:06;;;;;;;8.20;3.08;;;0.90;99.90;;;;;;5025467;28;20110;-74
2022/04/01 04:15:43;;;;;;;8.88;2.97;;;0.90;99.90;;;;;;5026494;28;20133;-74
2022/04/01 04:18:15;;;;;;;7.38;3.55;;;0.90;99.90;;;;;;5044269;28;20047;-73
2022/04/01 04:21:12;;;;;;;7.20;3.15;;;0.90;99.90;;;;;;5039983;28;20048;-74
2022/04/01 04:23:46;;;;;;;7.70;3.22;;;0.90;99.90;;;;;;5034538;28;20620;-74
2022/04/01 04:26:39;;;;;;;5.75;2.58;;;0.90;99.90;;;;;;5041245;28;20569;-74
2022/04/01 04:29:08;;;;;;;7.78;2.80;;;0.90;99.90;;;;;;5039274;28;20085;-74
2022/04/01 04:31:35;;;;;;;5.30;2.70;;;0.90;99.90;;;;;;5051506;28;20048;-74
2022/04/01 04:34:04;;;;;;;8.27;3.42;;;1.00;99.90;;;;;;5056163;28;20098;-74
2022/04/01 04:36:42;;;;;;;5.32;2.50;;;0.90;99.90;;;;;;5038857;28;20066;-74
2022/04/01 04:39:15;;;;;;;8.55;2.65;;;1.00;99.90;;;;;;5058073;28;20040;-74
2022/04/01 04:41:42;;;;;;;6.78;2.90;;;1.00;99.90;;;;;;5058310;28;20048;-74
2022/04/01 04:44:10;;;;;;;9.88;2.72;;;1.00;99.90;;;;;;5025375;28;20664;-74
2022/04/01 04:46:37;;;;;;;7.40;2.97;;;1.00;99.90;;;;;;5041466;28;20557;-74
2022/04/01 04:49:03;;;;;;;12.55;3.13;;;1.00;99.90;;;;;;5042420;28;20051;-74
2022/04/01 04:51:29;;;;;;;8.68;2.90;;;1.00;99.90;;;;;;5025481;28;20059;-74
2022/04/01 04:54:00;;;;;;;8.52;2.85;;;1.00;99.90;;;;;;5033760;28;20102;-74
2022/04/01 04:56:27;;;;;;;7.45;2.45;;;1.00;99.90;;;;;;5020870;28;20048;-74
2022/04/01 04:58:54;;;;;;;7.43;2.80;;;1.00;99.90;;;;;;5042369;28;20055;-74
2022/04/01 05:01:38;;;;;;;6.43;2.50;;;1.10;99.90;;;;;;5022698;28;20044;-75
2022/04/01 05:04:25;;;;;;;6.97;2.60;;;1.10;99.90;;;;;;5042167;28;20036;-74
2022/04/01 05:07:21;;;;;;;6.75;2.85;;;1.10;99.90;;;;;;5043776;28;20054;-74
2022/04/01 05:10:16;;;;;;;6.78;2.63;;;1.10;99.90;;;;;;5046306;28;20048;-74
2022/04/01 05:13:08;;;;;;;7.07;2.58;;;1.10;99.90;;;;;;5006830;28;20055;-74
2022/04/01 05:15:37;;;;;;;7.05;2.50;;;1.10;99.90;;;;;;5052291;28;20056;-74
2022/04/01 05:18:15;;;;;;;6.07;2.50;;;1.20;99.90;;;;;;5058849;28;20377;-74
2022/04/01 05:20:55;;;;;;;5.68;2.55;;;1.20;99.90;;;;;;5059845;28;20062;-74
2022/04/01 05:23:55;;;;;;;7.40;2.67;;;1.30;99.90;;;;;;5061343;28;20051;-74
2022/04/01 05:26:38;;;;;;;8.20;2.80;;;1.30;99.90;;;;;;5056363;28;20092;-74
2022/04/01 05:29:09;;;;;;;5.30;2.40;;;1.30;99.90;;;;;;5063394;28;20044;-74
2022/04/01 05:32:00;;;;;;;6.97;2.40;;;1.40;99.90;;;;;;5042456;28;20055;-74
2022/04/01 05:34:40;;;;;;;5.90;2.70;;;1.40;99.90;;;;;;5062961;28;20460;-74
2022/04/01 05:37:06;;;;;;;6.50;2.63;;;1.40;99.90;;;;;;5060814;28;20048;-73
2022/04/01 05:39:35;;;;;;;6.95;2.90;;;1.40;99.90;;;;;;5062523;28;20471;-75
2022/04/01 05:42:01;;;;;;;4.97;2.50;;;1.50;99.90;;;;;;5060963;28;20036;-74
2022/04/01 05:44:29;;;;;;;9.95;2.83;;;1.50;99.90;;;;;;5061369;28;20059;-74
2022/04/01 05:46:56;;;;;;;6.20;2.55;;;1.50;99.90;;;;;;5060984;28;20039;-74
2022/04/01 05:49:22;;;;;;;4.72;2.33;;;1.60;99.90;;;;;;5060487;28;20051;-74
2022/04/01 05:51:48;;;;;;;6.28;2.50;;;1.70;99.90;;;;;;5063032;28;20472;-74
2022/04/01 05:54:19;;;;;;;5.45;2.38;;;1.70;99.90;;;;;;5027186;28;20044;-74
2022/04/01 05:56:49;;;;;;;6.15;2.70;;;1.70;99.90;;;;;;5061844;28;20047;-74
2022/04/01 05:59:17;;;;;;;5.78;2.75;;;1.80;99.90;;;;;;5043727;28;20070;-74
2022/04/01 06:02:13;;;;;;;7.05;2.55;;;1.80;99.90;;;;;;5059025;28;20056;-74
2022/04/01 06:05:05;;;;;;;6.38;2.38;;;1.90;99.90;;;;;;5032318;28;20086;-74
2022/04/01 06:07:46;;;;;;;4.90;2.38;;;1.90;99.90;;;;;;5043618;28;20048;-74
2022/04/01 06:10:23;;;;;;;7.95;2.50;;;1.90;99.90;;;;;;5043531;28;20146;-73
2022/04/01 06:13:17;;;;;;;7.63;2.10;;;2.00;99.90;;;;;;5027118;28;20040;-73
2022/04/01 06:16:04;;;;;;;4.63;1.63;;;1.90;99.90;;;;;;5061725;28;20083;-74
2022/04/01 06:18:52;;;;;;;5.72;2.03;;;2.00;99.90;;;;;;5041597;28;20105;-74
2022/04/01 06:21:25;;;;;;;3.92;1.67;;;2.00;99.90;;;;;;5061582;28;20217;-74
2022/04/01 06:24:10;;;;;;;4.32;1.85;;;2.00;99.90;;;;;;5042513;28;20048;-74
2022/04/01 06:26:51;;;;;;;9.80;2.03;;;2.10;99.90;;;;;;5059598;28;20051;-73
2022/04/01 06:29:33;;;;;;;3.38;1.40;;;2.10;99.90;;;;;;5062834;28;20731;-74
2022/04/01 06:32:05;;;;;;;47.30;4.05;;;2.20;99.90;;;;;;5025058;28;20051;-73
2022/04/01 06:34:37;;;;;;;13.60;2.00;;;2.20;99.90;;;;;;5040805;28;20047;-74
2022/04/01 06:37:07;;;;;;;3.72;1.42;;;2.30;99.90;;;;;;5056107;28;20050;-74
2022/04/01 06:39:47;;;;;;;5.43;1.60;;;2.30;99.90;;;;;;5057989;28;20043;-74
2022/04/01 06:42:20;;;;;;;3.83;1.33;;;2.40;99.90;;;;;;5061060;28;20055;-71
2022/04/01 06:44:48;;;;;;;2.58;1.20;;;2.40;99.90;;;;;;5059434;28;20070;-73
2022/04/01 06:47:14;;;;;;;10.60;2.00;;;2.40;99.90;;;;;;5060416;28;20063;-74
2022/04/01 06:49:41;;;;;;;11.07;1.75;;;2.50;99.90;;;;;;5059727;28;20058;-74
2022/04/01 06:52:07;;;;;;;4.28;1.30;;;2.60;99.90;;;;;;5060973;28;20858;-74
2022/04/01 06:54:34;;;;;;;3.83;1.23;;;2.70;99.90;;;;;;5059750;28;20808;-74
2022/04/01 06:57:01;;;;;;;3.78;1.65;;;2.70;99.90;;;;;;5042701;28;20244;-74
2022/04/01 06:59:26;;;;;;;22.20;11.93;;;2.80;99.90;;;;;;5061720;28;20048;-74
2022/04/01 07:01:52;;;;;;;6.80;3.60;;;2.80;99.90;;;;;;5025625;28;20059;-74
2022/04/01 07:04:18;;;;;;;12.43;6.45;;;2.70;99.90;;;;;;5042127;28;20929;-73
2022/04/01 07:06:44;;;;;;;29.75;16.23;;;2.80;99.90;;;;;;5043213;28;20075;-75
2022/04/01 07:09:10;;;;;;;5.90;2.33;;;3.00;99.90;;;;;;5061251;28;20047;-74
2022/04/01 07:11:36;;;;;;;7.93;1.75;;;2.90;99.90;;;;;;5042418;28;20048;-74
2022/04/01 07:14:02;;;;;;;5.28;1.52;;;3.00;99.90;;;;;;5060368;28;20519;-74
2022/04/01 07:16:28;;;;;;;17.27;3.22;;;3.10;99.90;;;;;;5042090;28;20135;-74
2022/04/01 07:18:54;;;;;;;15.10;8.90;;;3.10;99.90;;;;;;5043132;28;20142;-73
2022/04/01 07:21:20;;;;;;;9.68;5.45;;;3.00;99.90;;;;;;5042593;28;20048;-74
2022/04/01 07:23:46;;;;;;;15.32;9.40;;;2.80;99.90;;;;;;5038705;28;20051;-75
2022/04/01 07:26:12;;;;;;;19.63;13.68;;;3.00;99.90;;;;;;5059813;28;20905;-75
2022/04/01 07:28:37;;;;;;;7.50;3.13;;;2.90;99.90;;;;;;5058492;28;20036;-75
2022/04/01 07:32:29;;;;;;;9.25;2.00;;;2.80;99.90;;;;;;5059207;28;20047;-74
2022/04/01 07:33:49;;;;;;;19.60;2.97;;;2.90;99.90;;;;;;5043021;28;20136;-74
2022/04/01 07:36:15;;;;;;;9.35;3.92;;;2.90;99.90;;;;;;5063818;28;20036;-74
2022/04/01 07:38:41;;;;;;;9.65;3.70;;;2.70;99.90;;;;;;5046880;28;20075;-74
2022/04/01 07:41:06;;;;;;;19.00;3.55;;;2.80;99.90;;;;;;5012227;28;20055;-74
2022/04/01 07:43:32;;;;;;;15.45;3.00;;;2.80;99.90;;;;;;5045478;28;20277;-74
2022/04/01 07:45:58;;;;;;;8.63;2.83;;;2.90;99.90;;;;;;5065275;28;20039;-74
2022/04/01 07:48:24;;;;;;;11.00;5.15;;;3.00;99.90;;;;;;5045786;28;20299;-76
2022/04/01 07:50:50;;;;;;;19.33;12.45;;;3.10;99.90;;;;;;5064839;28;20048;-73
2022/04/01 07:53:16;;;;;;;6.85;2.55;;;3.10;99.90;;;;;;5060412;28;20394;-73
2022/04/01 07:55:48;;;;;;;6.60;2.47;;;3.00;99.90;;;;;;5063656;28;20100;-74
2022/04/01 07:58:15;;;;;;;40.00;3.97;;;3.00;99.90;;;;;;5063290;28;20047;-75
2022/04/01 08:00:42;;;;;;;37.60;4.15;;;3.10;99.90;;;;;;5061842;28;20055;-75
2022/04/01 08:03:08;;;;;;;32.50;3.78;;;3.30;99.90;;;;;;5038214;28;20032;-74
2022/04/01 08:05:34;;;;;;;6.75;2.78;;;3.30;99.90;;;;;;5056549;28;20052;-75
2022/04/01 08:08:00;;;;;;;7.25;2.80;;;3.20;99.90;;;;;;5055286;28;20097;-75
2022/04/01 08:10:26;;;;;;;9.18;3.30;;;3.00;99.90;;;;;;5041560;28;20497;-75
2022/04/01 08:12:53;;;;;;;7.82;3.50;;;3.10;99.90;;;;;;5024553;28;20548;-74
2022/04/01 08:15:19;;;;;;;7.53;4.00;;;2.90;99.90;;;;;;5063379;28;20516;-75
2022/04/01 08:17:44;;;;;;;8.18;3.63;;;3.00;99.90;;;;;;5060251;28;20731;-75
2022/04/01 08:20:12;;;;;;;7.90;3.45;;;3.10;99.90;;;;;;5063277;28;20043;-74
2022/04/01 08:22:41;;;;;;;7.50;3.45;;;3.10;99.90;;;;;;5061809;28;20409;-75
2022/04/01 08:25:08;;;;;;;6.85;3.35;;;2.90;99.90;;;;;;5059824;28;20047;-75
2022/04/01 08:27:34;;;;;;;7.60;3.60;;;2.80;99.90;;;;;;5043314;28;20048;-75
2022/04/01 08:30:00;;;;;;;9.23;3.80;;;2.60;99.90;;;;;;5060753;28;20549;-75
2022/04/01 08:32:29;;;;;;;9.10;4.00;;;2.50;99.90;;;;;;5062160;28;20059;-74
2022/04/01 08:34:55;;;;;;;8.63;3.72;;;2.60;99.90;;;;;;5044982;28;20051;-73
2022/04/01 08:37:21;;;;;;;8.05;3.80;;;2.40;99.90;;;;;;5030504;28;20080;-74
2022/04/01 08:39:47;;;;;;;7.75;4.03;;;2.60;99.90;;;;;;5059907;28;20509;-75
2022/04/01 08:42:13;;;;;;;7.88;3.90;;;2.70;99.90;;;;;;5061249;28;20036;-75
2022/04/01 08:44:43;;;;;;;16.17;4.85;;;2.80;99.90;;;;;;5062322;28;20059;-74
2022/04/01 08:47:10;;;;;;;8.93;4.05;;;2.90;99.90;;;;;;5059007;28;20785;-74
2022/04/01 08:49:36;;;;;;;7.57;3.90;;;2.90;99.90;;;;;;5042449;28;20119;-74
2022/04/01 08:52:04;;;;;;;8.45;3.97;;;3.00;99.90;;;;;;5064102;28;20421;-75
2022/04/01 08:54:35;;;;;;;8.60;4.53;;;3.20;99.90;;;;;;5060644;28;20118;-75
2022/04/01 08:57:01;;;;;;;8.40;3.80;;;3.40;99.90;;;;;;5064551;28;20044;-75
2022/04/01 08:59:31;;;;;;;9.82;4.38;;;3.50;99.90;;;;;;5063253;28;20070;-74
2022/04/01 09:02:08;;;;;;;8.00;4.10;;;3.60;99.90;;;;;;5063103;28;20048;-75
2022/04/01 09:04:34;;;;;;;8.32;3.75;;;3.80;99.90;;;;;;5063840;28;20245;-75
2022/04/01 09:07:14;;;;;;;7.45;4.50;;;3.60;99.90;;;;;;5025346;28;20380;-76
2022/04/01 09:09:41;;;;;;;8.68;4.65;;;3.80;99.90;;;;;;5061617;28;20450;-75
2022/04/01 09:12:12;;;;;;;9.50;4.68;;;3.80;99.90;;;;;;5062942;28;20067;-75
2022/04/01 09:14:50;;;;;;;8.13;4.78;;;3.70;99.90;;;;;;5062131;28;20052;-75
2022/04/01 09:17:16;;;;;;;9.38;4.38;;;4.10;99.90;;;;;;5063332;28;20048;-75
2022/04/01 09:19:42;;;;;;;8.95;4.60;;;4.10;99.90;;;;;;5063462;28;20051;-75
2022/04/01 09:22:23;;;;;;;9.00;4.60;;;4.30;99.90;;;;;;5062486;28;21037;-74
2022/04/01 09:25:02;;;;;;;19.52;5.65;;;4.30;99.90;;;;;;5062970;28;20036;-75
2022/04/01 09:27:51;;;;;;;8.82;4.75;;;4.40;99.90;;;;;;5034143;28;21138;-75
2022/04/01 09:30:28;;;;;;;9.98;4.47;;;4.20;99.90;;;;;;5064017;28;20044;-74
2022/04/01 09:33:04;;;;;;;8.95;5.22;;;3.90;99.90;;;;;;5047092;28;20052;-75
2022/04/01 09:35:32;;;;;;;9.45;5.72;;;4.10;99.90;;;;;;5064466;28;20039;-74
2022/04/01 09:38:04;;;;;;;10.75;6.25;;;4.30;99.90;;;;;;5038420;28;20056;-74
2022/04/01 09:40:30;;;;;;;10.38;5.85;;;4.10;99.90;;;;;;5059464;28;20550;-74
2022/04/01 09:42:58;;;;;;;12.63;6.25;;;4.50;99.90;;;;;;5060751;28;20044;-75
2022/04/01 09:45:32;;;;;;;9.13;5.50;;;4.10;99.90;;;;;;5045293;28;20449;-74
2022/04/01 09:48:07;;;;;;;11.57;6.47;;;3.70;99.90;;;;;;5059465;28;20116;-73
2022/04/01 09:50:39;;;;;;;11.10;6.05;;;3.90;99.90;;;;;;5060289;28;20490;-74
2022/04/01 09:53:17;;;;;;;11.82;5.90;;;4.20;99.90;;;;;;5045436;28;20383;-74
2022/04/01 09:55:45;;;;;;;11.50;6.20;;;4.00;99.90;;;;;;5026595;28;20056;-74
2022/04/01 09:58:13;;;;;;;34.65;7.03;;;4.40;99.90;;;;;;5060671;28;20051;-74
2022/04/01 10:00:40;;;;;;;9.18;5.65;;;4.40;99.90;;;;;;5063238;28;20048;-74
2022/04/01 10:03:08;;;;;;;15.05;6.05;;;4.20;99.90;;;;;;5024145;28;20486;-73
2022/04/01 10:05:39;;;;;;;10.70;6.32;;;4.60;99.90;;;;;;5041952;28;20048;-75
2022/04/01 10:08:08;;;;;;;9.95;5.88;;;4.60;99.90;;;;;;5024721;28;20044;-75
2022/04/01 10:10:35;;;;;;;9.93;5.60;;;4.30;99.90;;;;;;5058995;28;20502;-74
2022/04/01 10:13:08;;;;;;;10.65;6.20;;;4.30;99.90;;;;;;5058579;28;20048;-74
2022/04/01 10:15:36;;;;;;;11.63;5.75;;;4.70;99.90;;;;;;5061251;28;20362;-74
2022/04/01 10:18:03;;;;;;;9.75;5.93;;;4.90;99.90;;;;;;5038557;28;20052;-74
2022/04/01 10:20:35;;;;;;;9.73;5.65;;;4.80;99.90;;;;;;5009078;28;20104;-73
2022/04/01 10:23:07;;;;;;;10.25;5.30;;;5.00;99.90;;;;;;5059189;28;20075;-74
2022/04/01 10:25:45;;;;;;;10.40;5.15;;;4.60;99.90;;;;;;5043761;28;20454;-75
2022/04/01 10:28:11;;;;;;;11.32;5.35;;;4.50;99.90;;;;;;5041355;28;20675;-74
2022/04/01 10:30:40;;;;;;;9.43;5.57;;;4.90;99.90;;;;;;5045149;28;20518;-74
2022/04/01 10:33:07;;;;;;;10.30;5.20;;;4.70;99.90;;;;;;5043454;28;20105;-74
2022/04/01 10:35:37;;;;;;;9.85;5.80;;;5.00;99.90;;;;;;5042950;28;20130;-74
2022/04/01 10:38:05;;;;;;;9.43;5.45;;;4.90;99.90;;;;;;5043662;28;20068;-74
2022/04/01 10:40:34;;;;;;;10.23;5.90;;;4.90;99.90;;;;;;5061157;28;20458;-75
2022/04/01 10:43:15;;;;;;;9.80;6.35;;;5.10;99.90;;;;;;5025191;28;20052;-75
2022/04/01 10:45:56;;;;;;;10.43;5.85;;;4.90;99.90;;;;;;5043388;28;20397;-74
2022/04/01 10:51:36;;;;;;;9.98;6.63;;;5.30;99.90;;;;;;5061497;28;20055;-75
2022/04/01 10:54:22;;;;;;;9.23;5.70;;;5.20;99.90;;;;;;5061039;28;20995;-73
2022/04/01 10:56:57;;;;;;;9.68;6.00;;;5.00;99.90;;;;;;4996990;28;20064;-75
2022/04/01 10:59:25;;;;;;;10.70;5.70;;;5.00;99.90;;;;;;5060348;28;20384;-74
2022/04/01 11:01:56;;;;;;;9.40;5.78;;;5.00;99.90;;;;;;5026325;28;20052;-74
2022/04/01 11:04:22;;;;;;;9.98;5.75;;;4.80;99.90;;;;;;5062159;28;20140;-75
2022/04/01 11:07:01;;;;;;;9.13;5.45;;;5.20;99.90;;;;;;5041096;28;20624;-74
2022/04/01 11:09:49;;;;;;;8.55;5.10;;;4.90;99.90;;;;;;5025655;28;20627;-74
2022/04/01 11:12:15;;;;;;;8.82;4.95;;;5.20;99.90;;;;;;5042384;28;21167;-75
2022/04/01 11:17:49;;;;;;;8.50;4.40;;;5.00;99.90;;;;;;5043905;28;20054;-75
2022/04/01 11:20:21;;;;;;;12.05;4.88;;;4.60;99.90;;;;;;5060989;28;20047;-74
2022/04/01 11:23:01;;;;;;;9.82;4.50;;;4.80;99.90;;;;;;5041508;28;20124;-74
2022/04/01 11:25:32;;;;;;;9.05;4.10;;;4.60;99.90;;;;;;5042942;28;20685;-73
2022/04/01 11:28:11;;;;;;;8.93;4.28;;;5.10;99.90;;;;;;5059963;28;20040;-74
2022/04/01 11:30:40;;;;;;;8.02;4.10;;;4.80;99.90;;;;;;5060453;28;20085;-74
2022/04/01 11:33:11;;;;;;;6.85;3.30;;;5.30;99.90;;;;;;5062391;28;20048;-74
2022/04/01 11:35:57;;;;;;;7.85;3.95;;;4.80;99.90;;;;;;5059364;28;20466;-75
2022/04/01 11:38:25;;;;;;;7.68;3.45;;;5.10;99.90;;;;;;5042817;28;20501;-74
2022/04/01 11:40:54;;;;;;;7.45;3.55;;;4.80;99.90;;;;;;5042559;28;20060;-74
2022/04/01 11:43:21;;;;;;;7.10;3.50;;;4.80;99.90;;;;;;5058657;28;20058;-74
2022/04/01 11:45:57;;;;;;;7.95;4.25;;;5.00;99.90;;;;;;5061191;28;20571;-74
2022/04/01 11:48:35;;;;;;;8.38;3.65;;;5.00;99.90;;;;;;5059286;28;20071;-74
2022/04/01 11:51:05;;;;;;;7.68;3.40;;;4.90;99.90;;;;;;5028999;28;20119;-74
2022/04/01 11:53:37;;;;;;;6.22;2.90;;;4.50;99.90;;;;;;5060026;28;20087;-75
2022/04/01 11:56:05;;;;;;;12.70;3.15;;;4.60;99.90;;;;;;5059596;28;20043;-73
2022/04/01 11:58:46;;;;;;;10.63;3.60;;;4.60;99.90;;;;;;5057212;28;20203;-75
2022/04/01 12:01:13;;;;;;;16.38;3.35;;;4.70;99.90;;;;;;5060778;28;20091;-74
2022/04/01 12:03:39;;;;;;;11.55;4.10;;;4.80;99.90;;;;;;5059515;28;20040;-73
2022/04/01 12:08:49;;;;;;;5.72;2.83;;;4.80;99.90;;;;;;5060500;28;20406;-75
2022/04/01 12:11:15;;;;;;;6.75;3.00;;;4.70;99.90;;;;;;5059061;28;20048;-74
2022/04/01 12:13:49;;;;;;;6.88;3.28;;;5.00;99.90;;;;;;5043720;28;20056;-74
2022/04/01 12:16:16;;;;;;;7.03;3.03;;;4.90;99.90;;;;;;5042825;28;20139;-74
2022/04/01 12:18:48;;;;;;;8.40;3.13;;;5.00;99.90;;;;;;5039807;28;20136;-73
2022/04/01 12:21:22;;;;;;;7.65;3.08;;;5.00;99.90;;;;;;5044150;28;20090;-74
2022/04/01 12:23:50;;;;;;;8.80;2.88;;;4.80;99.90;;;;;;5066735;28;20040;-74
2022/04/01 12:26:21;;;;;;;6.80;2.83;;;4.70;99.90;;;;;;5065070;28;20418;-73
2022/04/01 12:28:50;;;;;;;5.93;2.63;;;4.90;99.90;;;;;;5062156;28;20056;-75
2022/04/01 12:31:22;;;;;;;5.60;2.70;;;5.00;99.90;;;;;;5046604;28;20173;-75
2022/04/01 12:33:50;;;;;;;8.32;2.67;;;4.90;99.90;;;;;;5064711;28;20048;-74
2022/04/01 12:36:28;;;;;;;6.40;2.60;;;4.80;99.90;;;;;;5066125;28;20054;-75
2022/04/01 12:39:05;;;;;;;8.10;2.85;;;4.70;99.90;;;;;;5044847;28;20040;-74
2022/04/01 12:41:31;;;;;;;6.13;2.90;;;4.70;99.90;;;;;;5044825;28;20085;-74
2022/04/01 12:43:59;;;;;;;6.03;2.67;;;4.80;99.90;;;;;;5044696;28;20047;-75
2022/04/01 12:46:30;;;;;;;7.15;2.90;;;4.80;99.90;;;;;;5030284;28;20051;-74
2022/04/01 12:49:09;;;;;;;11.55;3.15;;;4.80;99.90;;;;;;5063582;28;20821;-74
2022/04/01 12:51:36;;;;;;;6.97;2.90;;;4.80;99.90;;;;;;5064552;28;20078;-75
2022/04/01 12:54:11;;;;;;;6.72;2.70;;;4.90;99.90;;;;;;5064834;28;20903;-73
2022/04/01 12:56:48;;;;;;;7.68;3.15;;;4.80;99.90;;;;;;5064226;28;20040;-74
2022/04/01 12:59:17;;;;;;;5.50;2.70;;;4.70;99.90;;;;;;5066048;28;20119;-74
2022/04/01 13:02:00;;;;;;;5.03;2.63;;;4.70;99.90;;;;;;5045058;28;20056;-74
2022/04/01 13:04:26;;;;;;;5.22;2.55;;;4.80;99.90;;;;;;5046842;28;20522;-74
2022/04/01 13:07:05;;;;;;;7.13;3.08;;;4.70;99.90;;;;;;5064007;28;20112;-74
2022/04/01 13:09:31;;;;;;;7.82;2.97;;;5.10;99.90;;;;;;5060763;28;20044;-74
2022/04/01 13:11:59;;;;;;;6.25;2.75;;;5.20;99.90;;;;;;5048037;28;20608;-74
2022/04/01 13:14:33;;;;;;;8.70;2.47;;;5.00;99.90;;;;;;5035630;28;20063;-75
2022/04/01 13:16:59;;;;;;;4.78;2.20;;;5.00;99.90;;;;;;5066202;28;20529;-75
2022/04/01 13:19:30;;;;;;;7.43;2.50;;;4.80;99.90;;;;;;5064312;28;20044;-74
2022/04/01 13:22:02;;;;;;;6.55;2.50;;;4.80;99.90;;;;;;5063874;28;20066;-74
2022/04/01 13:24:43;;;;;;;5.40;2.30;;;4.90;99.90;;;;;;5044016;28;20145;-74
2022/04/01 13:27:12;;;;;;;7.40;2.30;;;4.90;99.90;;;;;;5062320;28;20040;-74